createdAt,value
2023-04-06T00:01:06.758Z,83.64
2023-04-06T00:03:34.728Z,83.45
2023-04-06T00:06:02.768Z,83.50
2023-04-06T00:08:30.749Z,83.82
2023-04-06T00:11:00.059Z,84.11
2023-04-06T00:13:28.058Z,84.50
2023-04-06T00:15:56.139Z,84.56
2023-04-06T00:18:24.448Z,84.57
2023-04-06T00:20:52.492Z,84.62
2023-04-06T00:23:20.630Z,84.06
2023-04-06T00:25:48.601Z,84.57
2023-04-06T00:28:18.159Z,84.60
2023-04-06T00:30:46.258Z,84.80
2023-04-06T00:33:14.325Z,84.06
2023-04-06T00:35:42.427Z,84.04
2023-04-06T00:38:10.424Z,84.37
2023-04-06T00:40:40.478Z,84.00
2023-04-06T00:43:09.921Z,84.59
2023-04-06T00:45:40.791Z,83.44
2023-04-06T00:48:09.445Z,84.24
2023-04-06T00:50:37.759Z,84.23
2023-04-06T00:53:06.134Z,84.67
2023-04-06T00:55:35.415Z,83.80
2023-04-06T00:58:03.408Z,84.62
2023-04-06T01:00:36.828Z,84.64
2023-04-06T01:03:07.921Z,83.84
2023-04-06T01:05:43.187Z,83.31
2023-04-06T01:08:18.961Z,84.14
2023-04-06T01:10:47.861Z,84.24
2023-04-06T01:13:28.228Z,85.28
2023-04-06T01:16:01.268Z,85.87
2023-04-06T01:18:49.727Z,85.54
2023-04-06T01:21:21.441Z,85.60
2023-04-06T01:24:26.361Z,86.30
2023-04-06T01:27:13.390Z,86.05
2023-04-06T01:30:03.081Z,85.27
2023-04-06T01:33:00.444Z,85.10
2023-04-06T01:35:43.548Z,85.21
2023-04-06T01:38:15.823Z,85.15
2023-04-06T01:40:46.636Z,85.29
2023-04-06T01:43:15.671Z,84.82
2023-04-06T01:46:09.782Z,84.75
2023-04-06T01:48:41.490Z,84.56
2023-04-06T01:51:19.191Z,84.89
2023-04-06T01:54:12.930Z,85.83
2023-04-06T01:57:00.950Z,85.57
2023-04-06T01:59:54.868Z,85.48
2023-04-06T02:02:29.074Z,85.47
2023-04-06T02:05:08.528Z,85.01
2023-04-06T02:07:37.676Z,85.87
2023-04-06T02:10:12.801Z,85.51
2023-04-06T02:12:42.530Z,86.32
2023-04-06T02:15:15.462Z,86.03
2023-04-06T02:17:44.696Z,86.13
2023-04-06T02:20:13.005Z,85.93
2023-04-06T02:22:41.216Z,85.44
2023-04-06T02:25:10.072Z,85.79
2023-04-06T02:27:38.141Z,85.40
2023-04-06T02:30:09.644Z,86.06
2023-04-06T02:32:37.977Z,85.58
2023-04-06T02:35:07.066Z,85.75
2023-04-06T02:37:36.429Z,86.63
2023-04-06T02:40:04.929Z,86.34
2023-04-06T02:42:33.813Z,85.49
2023-04-06T02:45:01.902Z,85.83
2023-04-06T02:47:36.155Z,85.54
2023-04-06T02:50:05.519Z,85.61
2023-04-06T02:52:36.642Z,85.59
2023-04-06T02:55:06.066Z,85.27
2023-04-06T02:57:34.038Z,85.55
2023-04-06T03:00:02.096Z,86.06
2023-04-06T03:02:39.878Z,85.18
2023-04-06T03:05:11.653Z,84.83
2023-04-06T03:07:43.391Z,84.45
2023-04-06T03:10:18.107Z,84.49
2023-04-06T03:12:48.006Z,84.69
2023-04-06T03:15:23.261Z,85.11
2023-04-06T03:18:02.234Z,85.67
2023-04-06T03:20:38.848Z,85.38
2023-04-06T03:23:06.986Z,85.92
2023-04-06T03:25:40.546Z,85.71
2023-04-06T03:28:11.022Z,85.83
2023-04-06T03:30:48.581Z,85.32
2023-04-06T03:33:21.800Z,85.11
2023-04-06T03:35:55.005Z,84.37
2023-04-06T03:38:25.947Z,85.32
2023-04-06T03:40:54.844Z,85.68
2023-04-06T03:43:26.613Z,85.34
2023-04-06T03:45:55.049Z,85.11
2023-04-06T03:48:24.408Z,86.21
2023-04-06T03:50:52.307Z,85.49
2023-04-06T03:53:20.255Z,85.64
2023-04-06T03:55:48.150Z,85.10
2023-04-06T03:58:16.234Z,85.87
2023-04-06T04:00:44.177Z,86.34
2023-04-06T04:03:12.206Z,85.22
2023-04-06T04:05:41.646Z,85.51
2023-04-06T04:08:10.485Z,86.09
2023-04-06T04:10:38.419Z,85.85
2023-04-06T04:13:06.346Z,86.57
2023-04-06T04:15:34.454Z,86.19
2023-04-06T04:18:02.500Z,86.70
2023-04-06T04:20:30.663Z,86.57
2023-04-06T04:22:59.925Z,86.34
2023-04-06T04:25:30.836Z,86.66
2023-04-06T04:27:58.809Z,86.24
2023-04-06T04:30:26.772Z,85.92
2023-04-06T04:32:54.943Z,86.29
2023-04-06T04:35:24.918Z,86.30
2023-04-06T04:37:53.068Z,85.61
2023-04-06T04:40:22.514Z,86.33
2023-04-06T04:42:59.487Z,85.56
2023-04-06T04:45:33.557Z,86.06
2023-04-06T04:48:09.793Z,86.19
2023-04-06T04:50:49.351Z,85.66
2023-04-06T04:53:19.001Z,85.48
2023-04-06T04:55:49.197Z,85.60
2023-04-06T04:58:19.896Z,84.97
2023-04-06T05:00:59.784Z,85.96
2023-04-06T05:03:29.189Z,85.70
2023-04-06T05:06:03.806Z,86.08
2023-04-06T05:08:35.765Z,85.55
2023-04-06T05:11:05.526Z,85.80
2023-04-06T05:13:40.998Z,86.32
2023-04-06T05:16:14.977Z,86.49
2023-04-06T05:18:43.141Z,86.63
2023-04-06T05:21:12.651Z,86.02
2023-04-06T05:24:03.033Z,86.20
2023-04-06T05:26:34.580Z,86.53
2023-04-06T05:29:08.985Z,85.61
2023-04-06T05:31:39.362Z,86.38
2023-04-06T05:34:07.533Z,85.69
2023-04-06T05:36:38.381Z,85.72
2023-04-06T05:39:15.423Z,85.61
2023-04-06T05:41:51.971Z,86.14
2023-04-06T05:44:31.187Z,86.65
2023-04-06T05:47:08.352Z,86.57
2023-04-06T05:49:38.597Z,86.48
2023-04-06T05:52:11.838Z,86.59
2023-04-06T05:54:41.209Z,86.30
2023-04-06T05:57:10.574Z,87.43
2023-04-06T05:59:38.950Z,87.06
2023-04-06T06:02:07.780Z,87.75
2023-04-06T06:04:40.916Z,88.27
2023-04-06T06:07:08.972Z,87.00
2023-04-06T06:09:45.429Z,85.35
2023-04-06T06:12:22.875Z,84.73
2023-04-06T06:14:51.964Z,85.79
2023-04-06T06:17:21.215Z,85.09
2023-04-06T06:19:50.025Z,82.44
2023-04-06T06:22:18.299Z,80.27
2023-04-06T06:24:48.479Z,79.33
2023-04-06T06:27:19.459Z,78.49
2023-04-06T06:29:50.621Z,76.60
2023-04-06T06:32:20.317Z,75.92
2023-04-06T06:34:52.087Z,74.79
2023-04-06T06:37:21.031Z,74.95
2023-04-06T06:39:50.031Z,73.92
2023-04-06T06:42:18.841Z,73.25
2023-04-06T06:45:14.675Z,73.51
2023-04-06T06:47:43.232Z,74.89
2023-04-06T06:50:13.022Z,74.37
2023-04-06T06:52:42.266Z,75.50
2023-04-06T06:55:11.990Z,74.85
2023-04-06T06:57:39.951Z,75.36
2023-04-06T07:00:12.910Z,74.33
2023-04-06T07:02:43.748Z,73.27
2023-04-06T07:05:24.252Z,69.82
2023-04-06T07:07:57.262Z,66.47
2023-04-06T07:10:25.710Z,65.14
2023-04-06T07:12:53.813Z,59.90
2023-04-06T07:15:21.888Z,57.94
2023-04-06T07:17:53.377Z,60.73
2023-04-06T07:20:21.418Z,57.31
2023-04-06T07:22:49.552Z,57.65
2023-04-06T07:25:17.573Z,55.30
2023-04-06T07:27:45.597Z,57.76
2023-04-06T07:30:14.129Z,55.70
2023-04-06T07:32:42.207Z,55.79
2023-04-06T07:35:12.201Z,56.14
2023-04-06T07:37:40.325Z,54.53
2023-04-06T07:40:10.376Z,52.87
2023-04-06T07:42:39.113Z,56.50
2023-04-06T07:45:12.169Z,52.58
2023-04-06T07:47:40.315Z,52.66
2023-04-06T07:50:09.574Z,52.85
2023-04-06T07:52:38.902Z,53.97
2023-04-06T07:55:08.058Z,52.71
2023-04-06T07:57:36.026Z,51.68
2023-04-06T08:00:04.763Z,52.59
2023-04-06T08:02:40.292Z,51.41
2023-04-06T08:05:09.098Z,50.62
2023-04-06T08:07:38.859Z,48.17
2023-04-06T08:10:07.268Z,47.53
2023-04-06T08:12:35.926Z,46.27
2023-04-06T08:15:05.476Z,47.62
2023-04-06T08:17:35.096Z,47.27
2023-04-06T08:20:04.318Z,46.00
2023-04-06T08:22:32.246Z,47.63
2023-04-06T08:25:01.498Z,46.34
2023-04-06T08:27:29.488Z,47.06
2023-04-06T08:29:57.517Z,44.56
2023-04-06T08:32:25.651Z,44.99
2023-04-06T08:34:55.938Z,45.61
2023-04-06T08:37:23.672Z,45.38
2023-04-06T08:39:51.645Z,43.18
2023-04-06T08:42:23.934Z,44.62
2023-04-06T08:44:53.298Z,44.52
2023-04-06T08:47:24.531Z,43.37
2023-04-06T08:49:53.219Z,44.49
2023-04-06T08:52:21.807Z,42.00
2023-04-06T08:54:49.740Z,42.64
2023-04-06T08:57:18.627Z,42.14
2023-04-06T08:59:48.446Z,40.89
2023-04-06T09:02:20.304Z,42.45
2023-04-06T09:04:50.929Z,42.40
2023-04-06T09:07:19.018Z,41.40
2023-04-06T09:09:49.649Z,41.58
2023-04-06T09:12:27.925Z,41.22
2023-04-06T09:14:58.889Z,41.18
2023-04-06T09:17:28.920Z,40.98
2023-04-06T09:19:57.315Z,41.32
2023-04-06T09:22:27.971Z,41.30
2023-04-06T09:24:56.383Z,39.95
2023-04-06T09:27:33.022Z,40.97
2023-04-06T09:30:14.733Z,40.07
2023-04-06T09:32:50.700Z,40.17
2023-04-06T09:35:21.014Z,41.62
2023-04-06T09:37:49.803Z,40.03
2023-04-06T09:40:18.465Z,39.85
2023-04-06T09:42:48.401Z,41.19
2023-04-06T09:45:17.974Z,40.37
2023-04-06T09:47:47.690Z,40.01
2023-04-06T09:50:17.318Z,39.09
2023-04-06T09:52:50.497Z,38.22
2023-04-06T09:55:26.199Z,39.65
2023-04-06T09:58:00.237Z,39.18
2023-04-06T10:00:32.838Z,39.70
2023-04-06T10:03:09.301Z,38.66
2023-04-06T10:05:43.697Z,38.74
2023-04-06T10:08:12.646Z,38.70
2023-04-06T10:10:40.674Z,38.47
2023-04-06T10:13:12.069Z,38.96
2023-04-06T10:15:41.710Z,39.18
2023-04-06T10:18:10.997Z,39.07
2023-04-06T10:20:44.333Z,39.43
2023-04-06T10:23:17.289Z,39.25
2023-04-06T10:25:56.551Z,39.10
2023-04-06T10:28:25.828Z,39.74
2023-04-06T10:31:01.450Z,39.42
2023-04-06T10:33:31.295Z,39.17
2023-04-06T10:35:59.505Z,40.84
2023-04-06T10:38:41.142Z,40.25
2023-04-06T10:41:11.600Z,39.17
2023-04-06T10:43:41.351Z,39.47
2023-04-06T10:46:13.101Z,40.72
2023-04-06T10:48:42.251Z,40.33
2023-04-06T10:51:11.790Z,39.15
2023-04-06T10:53:39.878Z,39.69
2023-04-06T10:56:12.858Z,39.42
2023-04-06T10:58:45.770Z,39.94
2023-04-06T11:01:17.400Z,39.25
2023-04-06T11:03:46.624Z,40.00
2023-04-06T11:06:20.673Z,38.87
2023-04-06T11:08:48.782Z,39.28
2023-04-06T11:11:19.528Z,41.86
2023-04-06T11:13:49.177Z,40.63
2023-04-06T11:16:20.586Z,39.75
2023-04-06T11:18:53.441Z,39.84
2023-04-06T11:21:21.996Z,39.34
2023-04-06T11:23:49.994Z,40.74
2023-04-06T11:26:18.140Z,39.50
2023-04-06T11:28:46.349Z,40.04
2023-04-06T11:31:14.387Z,40.21
2023-04-06T11:33:43.779Z,38.71
2023-04-06T11:38:41.443Z,38.96
2023-04-06T11:41:09.468Z,37.40
2023-04-06T11:43:37.577Z,38.34
2023-04-06T11:46:07.679Z,39.73
2023-04-06T11:48:48.073Z,38.88
2023-04-06T11:51:23.638Z,38.62
2023-04-06T11:53:51.869Z,37.27
2023-04-06T11:56:27.568Z,36.11
2023-04-06T11:58:57.750Z,35.74
2023-04-06T12:01:26.322Z,37.12
2023-04-06T12:03:56.086Z,35.98
2023-04-06T12:06:24.999Z,38.01
2023-04-06T12:08:52.978Z,35.94
2023-04-06T12:11:22.810Z,39.25
2023-04-06T12:13:51.168Z,37.46
2023-04-06T12:16:20.216Z,36.92
2023-04-06T12:18:48.466Z,36.64
2023-04-06T12:21:17.807Z,36.68
2023-04-06T12:23:45.718Z,36.89
2023-04-06T12:26:13.610Z,36.37
2023-04-06T12:28:41.732Z,36.50
2023-04-06T12:31:16.172Z,36.05
2023-04-06T12:33:45.925Z,36.42
2023-04-06T12:36:14.661Z,37.33
2023-04-06T12:38:46.680Z,36.58
2023-04-06T12:41:14.694Z,35.29
2023-04-06T12:43:43.593Z,34.63
2023-04-06T12:46:12.397Z,36.23
2023-04-06T12:48:40.833Z,36.00
2023-04-06T12:51:09.160Z,35.70
2023-04-06T12:53:38.129Z,36.51
2023-04-06T12:56:14.320Z,36.08
2023-04-06T12:58:43.137Z,35.16
2023-04-06T13:01:11.733Z,38.41
2023-04-06T13:03:39.814Z,36.46
2023-04-06T13:06:09.261Z,37.33
2023-04-06T13:08:38.232Z,37.47
2023-04-06T13:11:09.817Z,36.15
2023-04-06T13:13:38.441Z,37.94
2023-04-06T13:16:08.921Z,37.41
2023-04-06T13:18:39.502Z,35.97
2023-04-06T13:21:08.124Z,37.94
2023-04-06T13:23:36.677Z,36.52
2023-04-06T13:26:07.753Z,35.95
2023-04-06T13:28:39.688Z,37.08
2023-04-06T13:31:08.105Z,36.99
2023-04-06T13:33:36.410Z,36.27
2023-04-06T13:36:05.400Z,34.11
2023-04-06T13:38:34.591Z,35.42
2023-04-06T13:41:02.572Z,34.51
2023-04-06T13:43:31.863Z,35.13
2023-04-06T13:46:01.763Z,35.00
2023-04-06T13:48:29.745Z,33.33
2023-04-06T13:50:57.720Z,33.86
2023-04-06T13:53:25.494Z,33.83
2023-04-06T13:55:56.280Z,35.38
2023-04-06T13:58:24.383Z,34.21
2023-04-06T14:00:53.653Z,34.30
2023-04-06T14:03:22.277Z,34.48
2023-04-06T14:05:50.347Z,34.23
2023-04-06T14:08:18.179Z,35.23
2023-04-06T14:10:46.109Z,34.80
2023-04-06T14:13:13.923Z,35.44
2023-04-06T14:15:41.837Z,34.05
2023-04-06T14:18:11.418Z,34.85
2023-04-06T14:20:39.204Z,35.76
2023-04-06T14:23:07.201Z,34.84
2023-04-06T14:25:35.881Z,34.92
2023-04-06T14:28:04.218Z,35.10
2023-04-06T14:30:32.601Z,34.94
2023-04-06T14:33:00.753Z,33.91
2023-04-06T14:35:31.658Z,36.13
2023-04-06T14:38:00.012Z,35.87
2023-04-06T14:40:27.882Z,35.54
2023-04-06T14:42:56.691Z,34.74
2023-04-06T14:45:24.535Z,33.98
2023-04-06T14:47:52.425Z,34.92
2023-04-06T14:50:20.202Z,34.64
2023-04-06T14:52:49.502Z,33.62
2023-04-06T14:55:17.418Z,35.60
2023-04-06T14:57:45.273Z,34.73
2023-04-06T15:00:14.382Z,35.86
2023-04-06T15:02:44.198Z,35.97
2023-04-06T15:05:12.659Z,35.33
2023-04-06T15:07:40.520Z,35.43
2023-04-06T15:10:12.364Z,35.36
2023-04-06T15:12:40.336Z,36.35
2023-04-06T15:15:09.059Z,35.55
2023-04-06T15:17:36.902Z,36.87
2023-04-06T15:20:05.519Z,36.26
2023-04-06T15:22:33.453Z,36.64
2023-04-06T15:25:02.341Z,35.46
2023-04-06T15:27:31.644Z,36.93
2023-04-06T15:30:00.595Z,35.54
2023-04-06T15:32:28.690Z,37.12
2023-04-06T15:34:58.069Z,36.61
2023-04-06T15:37:25.939Z,35.92
2023-04-06T15:39:53.924Z,35.72
2023-04-06T15:42:21.741Z,35.28
2023-04-06T15:44:50.953Z,36.56
2023-04-06T15:47:18.754Z,37.56
2023-04-06T15:49:46.659Z,35.39
2023-04-06T15:52:14.482Z,35.49
2023-04-06T15:54:42.359Z,35.55
2023-04-06T15:57:10.312Z,36.70
2023-04-06T15:59:38.077Z,37.06
2023-04-06T16:02:07.533Z,36.92
2023-04-06T16:04:35.622Z,37.47
2023-04-06T16:07:03.631Z,36.90
2023-04-06T16:09:31.485Z,36.49
2023-04-06T16:11:59.469Z,38.05
2023-04-06T16:14:27.352Z,36.90
2023-04-06T16:16:55.307Z,37.41
2023-04-06T16:19:24.587Z,38.38
2023-04-06T16:21:52.309Z,37.47
2023-04-06T16:24:20.418Z,38.55
2023-04-06T16:26:49.404Z,38.11
2023-04-06T16:29:18.048Z,39.23
2023-04-06T16:31:47.888Z,39.23
2023-04-06T16:34:15.930Z,38.87
2023-04-06T16:36:45.146Z,39.17
2023-04-06T16:39:13.153Z,39.74
2023-04-06T16:41:40.976Z,39.61
2023-04-06T16:44:09.270Z,40.28
2023-04-06T16:46:38.335Z,40.22
2023-04-06T16:49:06.965Z,40.54
2023-04-06T16:51:34.779Z,41.32
2023-04-06T16:54:04.184Z,40.94
2023-04-06T16:56:33.561Z,41.38
2023-04-06T16:59:01.445Z,41.41
2023-04-06T17:01:30.199Z,40.70
2023-04-06T17:03:58.512Z,41.25
2023-04-06T17:06:27.725Z,41.45
2023-04-06T17:08:55.730Z,42.02
2023-04-06T17:11:48.547Z,41.99
2023-04-06T17:14:12.997Z,42.50
2023-04-06T17:16:40.930Z,43.27
2023-04-06T17:19:08.925Z,42.62
2023-04-06T17:21:36.954Z,42.94
2023-04-06T17:24:05.064Z,43.62
2023-04-06T17:26:34.460Z,43.54
2023-04-06T17:29:02.380Z,43.27
2023-04-06T17:31:30.323Z,43.15
2023-04-06T17:33:58.659Z,43.26
2023-04-06T17:36:27.868Z,43.67
2023-04-06T17:38:55.815Z,43.55
2023-04-06T17:41:24.155Z,43.54
2023-04-06T17:43:53.347Z,45.32
2023-04-06T17:46:21.595Z,44.46
2023-04-06T17:48:50.805Z,45.18
2023-04-06T17:51:19.443Z,44.37
2023-04-06T17:53:47.828Z,45.54
2023-04-06T17:56:15.703Z,45.22
2023-04-06T17:58:43.559Z,45.97
2023-04-06T18:01:12.975Z,44.96
2023-04-06T18:03:41.179Z,45.82
2023-04-06T18:06:16.679Z,44.39
2023-04-06T18:08:44.687Z,45.00
2023-04-06T18:11:17.043Z,45.87
2023-04-06T18:13:44.991Z,45.38
2023-04-06T18:16:14.602Z,45.20
2023-04-06T18:18:42.551Z,46.06
2023-04-06T18:21:10.380Z,46.26
2023-04-06T18:23:38.577Z,45.30
2023-04-06T18:26:07.421Z,45.33
2023-04-06T18:28:35.490Z,45.93
2023-04-06T18:31:03.389Z,45.70
2023-04-06T18:33:33.830Z,46.16
2023-04-06T18:36:01.620Z,45.95
2023-04-06T18:38:29.524Z,46.24
2023-04-06T18:40:57.775Z,46.44
2023-04-06T18:43:26.244Z,46.35
2023-04-06T18:45:54.248Z,46.94
2023-04-06T18:48:22.232Z,48.11
2023-04-06T18:50:54.878Z,48.70
2023-04-06T18:53:22.825Z,48.98
2023-04-06T18:55:51.476Z,48.93
2023-04-06T18:58:19.367Z,49.01
2023-04-06T19:00:47.233Z,49.71
2023-04-06T19:03:15.395Z,50.63
2023-04-06T19:05:44.334Z,51.51
2023-04-06T19:08:13.661Z,52.38
2023-04-06T19:10:41.595Z,53.59
2023-04-06T19:13:09.969Z,54.98
2023-04-06T19:15:41.001Z,56.83
2023-04-06T19:18:08.920Z,57.59
2023-04-06T19:20:36.818Z,58.82
2023-04-06T19:23:04.860Z,59.08
2023-04-06T19:25:34.284Z,59.90
2023-04-06T19:28:02.171Z,59.25
2023-04-06T19:30:29.986Z,60.02
2023-04-06T19:32:57.975Z,59.19
2023-04-06T19:35:25.761Z,59.52
2023-04-06T19:37:53.848Z,59.87
2023-04-06T19:40:21.681Z,59.05
2023-04-06T19:42:50.952Z,59.81
2023-04-06T19:45:18.883Z,59.21
2023-04-06T19:47:46.719Z,59.25
2023-04-06T19:50:15.450Z,60.98
2023-04-06T19:52:43.796Z,61.63
2023-04-06T19:55:11.667Z,63.14
2023-04-06T19:57:39.664Z,59.23
2023-04-06T20:00:10.987Z,58.45
2023-04-06T20:02:39.928Z,57.24
2023-04-06T20:05:08.311Z,55.69
2023-04-06T20:07:37.804Z,58.54
2023-04-06T20:10:07.913Z,59.80
2023-04-06T20:12:36.129Z,60.08
2023-04-06T20:15:04.533Z,61.44
2023-04-06T20:17:33.849Z,64.00
2023-04-06T20:20:01.732Z,64.07
2023-04-06T20:22:29.603Z,64.06
2023-04-06T20:24:57.437Z,64.15
2023-04-06T20:27:25.570Z,64.93
2023-04-06T20:29:53.574Z,65.78
2023-04-06T20:32:21.857Z,65.90
2023-04-06T20:34:52.618Z,65.90
2023-04-06T20:37:21.378Z,65.68
2023-04-06T20:39:49.374Z,65.90
2023-04-06T20:42:17.947Z,66.71
2023-04-06T20:44:46.795Z,68.01
2023-04-06T20:47:14.874Z,68.24
2023-04-06T20:49:43.188Z,69.07
2023-04-06T20:52:13.061Z,68.71
2023-04-06T20:54:40.946Z,68.06
2023-04-06T20:57:08.915Z,67.97
2023-04-06T20:59:37.694Z,69.02
2023-04-06T21:02:05.772Z,69.96
2023-04-06T21:04:35.281Z,70.32
2023-04-06T21:07:04.698Z,70.94
2023-04-06T21:09:36.061Z,71.29
2023-04-06T21:12:04.082Z,72.16
2023-04-06T21:14:32.075Z,72.17
2023-04-06T21:17:00.741Z,72.34
2023-04-06T21:19:29.258Z,71.77
2023-04-06T21:21:57.255Z,71.72
2023-04-06T21:24:25.782Z,71.62
2023-04-06T21:26:55.162Z,71.33
2023-04-06T21:29:23.136Z,70.91
2023-04-06T21:31:50.996Z,71.92
2023-04-06T21:34:19.100Z,71.86
2023-04-06T21:36:47.078Z,71.48
2023-04-06T21:39:14.944Z,72.56
2023-04-06T21:41:42.808Z,72.72
2023-04-06T21:44:11.966Z,73.10
2023-04-06T21:46:39.911Z,73.73
2023-04-06T21:49:07.879Z,73.71
2023-04-06T21:51:35.991Z,73.54
2023-04-06T21:54:03.823Z,73.79
2023-04-06T21:56:31.763Z,73.90
2023-04-06T21:58:59.825Z,74.62
2023-04-06T22:01:29.499Z,74.91
2023-04-06T22:03:57.782Z,75.86
2023-04-06T22:06:26.013Z,76.22
2023-04-06T22:08:53.885Z,76.58
2023-04-06T22:11:21.848Z,77.40
2023-04-06T22:13:49.819Z,77.19
2023-04-06T22:16:18.564Z,77.30
2023-04-06T22:18:47.813Z,78.28
2023-04-06T22:21:15.743Z,78.51
2023-04-06T22:23:43.832Z,79.09
2023-04-06T22:26:12.664Z,79.90
2023-04-06T22:28:40.650Z,79.58
2023-04-06T22:31:08.466Z,78.91
2023-04-06T22:33:36.346Z,78.49
2023-04-06T22:36:06.205Z,78.81
2023-04-06T22:38:34.162Z,78.65
2023-04-06T22:41:02.013Z,79.20
2023-04-06T22:43:29.827Z,79.13
2023-04-06T22:45:57.750Z,79.33
2023-04-06T22:48:25.770Z,79.33
2023-04-06T22:50:53.845Z,79.87
2023-04-06T22:53:22.986Z,79.38
2023-04-06T22:55:50.838Z,79.48
2023-04-06T22:58:18.821Z,79.94
2023-04-06T23:00:46.683Z,79.80
2023-04-06T23:03:14.707Z,80.70
2023-04-06T23:05:42.774Z,80.96
2023-04-06T23:08:10.826Z,80.05
2023-04-06T23:10:42.052Z,79.52
2023-04-06T23:13:10.085Z,79.31
2023-04-06T23:15:38.031Z,78.74
2023-04-06T23:18:06.189Z,78.48
2023-04-06T23:20:34.113Z,78.75
2023-04-06T23:23:01.972Z,78.87
2023-04-06T23:25:29.795Z,78.23
2023-04-06T23:27:58.960Z,78.40
2023-04-06T23:30:26.798Z,78.25
2023-04-06T23:32:54.642Z,78.41
2023-04-06T23:35:22.509Z,78.44
2023-04-06T23:37:50.374Z,78.70
2023-04-06T23:40:18.437Z,78.92
2023-04-06T23:42:46.228Z,79.51
2023-04-06T23:45:15.693Z,80.07
2023-04-06T23:47:43.550Z,80.01
2023-04-06T23:50:11.937Z,79.47
2023-04-06T23:52:39.713Z,79.50
2023-04-06T23:55:08.472Z,79.11
2023-04-06T23:57:36.407Z,79.14
